FOON

M'Vengue El Hadj Omar Bongo Ondimba International Airport

Franceville, Gabon
METAR FOON 261300Z VRB02KT 9999 SCT015 32/22 Q1011
Observed Flight Rules
Apr-26 @ 13:00 UTC (37 minutes ago) Visual Flight Rules
Wind Visibility Clouds
Variable at 2 knots 10,000+ meters
  • Scattered at 1,500' AGL
Temperatures Readings
Current 32°C / 90°F
Dewpoint 22°C / 72°F
Humidity 55%
Altimeter 29.85" Hg
Pressure 1011 hPa
Elevation 441
METAR FOON 261300Z VRB02KT 9999 SCT015 32/22 Q1011
Observed Flight Rules
Apr-26 @ 13:00 UTC
(37 minutes ago)
VFR
Wind Visibility
Variable at 2 knots 10,000+ meters
Clouds
  • Scattered at 1,500' AGL
Temperature Dewpoint
32°C / 90°F 22°C / 72°F
Humidity Altimeter Pressure
55% 29.85" Hg 1011 hPa